sensor_id;sensor_type;location;lat;lon;timestamp;temperature;humidity
68556;HTU21D;55544;51.032;5.866;2023-03-12T00:00:34;7.53;57.87
68556;HTU21D;55544;51.032;5.866;2023-03-12T00:02:59;7.52;58.17
68556;HTU21D;55544;51.032;5.866;2023-03-12T00:05:25;7.52;58.18
68556;HTU21D;55544;51.032;5.866;2023-03-12T00:07:52;7.48;58.19
68556;HTU21D;55544;51.032;5.866;2023-03-12T00:10:18;7.47;58.23
68556;HTU21D;55544;51.032;5.866;2023-03-12T00:12:44;7.47;58.08
68556;HTU21D;55544;51.032;5.866;2023-03-12T00:15:10;7.47;57.96
68556;HTU21D;55544;51.032;5.866;2023-03-12T00:17:36;7.47;58.11
68556;HTU21D;55544;51.032;5.866;2023-03-12T00:20:03;7.44;57.96
68556;HTU21D;55544;51.032;5.866;2023-03-12T00:22:32;7.46;58.08
68556;HTU21D;55544;51.032;5.866;2023-03-12T00:24:57;7.49;58.05
68556;HTU21D;55544;51.032;5.866;2023-03-12T00:27:26;7.50;57.90
68556;HTU21D;55544;51.032;5.866;2023-03-12T00:29:52;7.52;58.05
68556;HTU21D;55544;51.032;5.866;2023-03-12T00:32:19;7.50;58.10
68556;HTU21D;55544;51.032;5.866;2023-03-12T00:34:53;7.52;57.82
68556;HTU21D;55544;51.032;5.866;2023-03-12T00:37:19;7.43;57.81
68556;HTU21D;55544;51.032;5.866;2023-03-12T00:39:44;7.39;58.14
68556;HTU21D;55544;51.032;5.866;2023-03-12T00:42:10;7.38;58.48
68556;HTU21D;55544;51.032;5.866;2023-03-12T00:44:36;7.40;58.51
68556;HTU21D;55544;51.032;5.866;2023-03-12T00:47:02;7.41;58.40
68556;HTU21D;55544;51.032;5.866;2023-03-12T00:49:28;7.27;57.45
68556;HTU21D;55544;51.032;5.866;2023-03-12T00:51:53;7.00;57.71
68556;HTU21D;55544;51.032;5.866;2023-03-12T00:54:20;6.83;58.16
68556;HTU21D;55544;51.032;5.866;2023-03-12T00:56:46;6.74;58.28
68556;HTU21D;55544;51.032;5.866;2023-03-12T00:59:13;6.63;58.54
68556;HTU21D;55544;51.032;5.866;2023-03-12T01:01:38;6.49;59.07
68556;HTU21D;55544;51.032;5.866;2023-03-12T01:04:05;6.30;59.50
68556;HTU21D;55544;51.032;5.866;2023-03-12T01:06:30;6.22;59.89
68556;HTU21D;55544;51.032;5.866;2023-03-12T01:08:56;6.17;60.44
68556;HTU21D;55544;51.032;5.866;2023-03-12T01:11:23;6.21;60.51
68556;HTU21D;55544;51.032;5.866;2023-03-12T01:13:49;6.26;60.54
68556;HTU21D;55544;51.032;5.866;2023-03-12T01:16:14;6.31;60.37
68556;HTU21D;55544;51.032;5.866;2023-03-12T01:18:41;6.28;60.52
68556;HTU21D;55544;51.032;5.866;2023-03-12T01:21:07;6.27;60.41
68556;HTU21D;55544;51.032;5.866;2023-03-12T01:23:32;6.25;60.41
68556;HTU21D;55544;51.032;5.866;2023-03-12T01:25:58;6.17;60.11
68556;HTU21D;55544;51.032;5.866;2023-03-12T01:28:25;5.97;60.80
68556;HTU21D;55544;51.032;5.866;2023-03-12T01:30:51;5.97;60.76
68556;HTU21D;55544;51.032;5.866;2023-03-12T01:33:17;6.05;60.79
68556;HTU21D;55544;51.032;5.866;2023-03-12T01:35:43;6.13;60.50
68556;HTU21D;55544;51.032;5.866;2023-03-12T01:38:13;6.15;60.39
68556;HTU21D;55544;51.032;5.866;2023-03-12T01:40:42;6.07;60.57
68556;HTU21D;55544;51.032;5.866;2023-03-12T01:43:35;6.08;60.71
68556;HTU21D;55544;51.032;5.866;2023-03-12T01:51:36;6.09;60.84
68556;HTU21D;55544;51.032;5.866;2023-03-12T01:54:11;6.12;60.83
68556;HTU21D;55544;51.032;5.866;2023-03-12T01:56:39;6.14;60.22
68556;HTU21D;55544;51.032;5.866;2023-03-12T01:59:14;6.05;61.08
68556;HTU21D;55544;51.032;5.866;2023-03-12T02:01:42;5.98;60.86
68556;HTU21D;55544;51.032;5.866;2023-03-12T02:04:10;5.93;60.94
68556;HTU21D;55544;51.032;5.866;2023-03-12T02:06:49;5.89;61.15
68556;HTU21D;55544;51.032;5.866;2023-03-12T02:09:17;5.75;62.09
68556;HTU21D;55544;51.032;5.866;2023-03-12T02:11:46;5.78;62.15
68556;HTU21D;55544;51.032;5.866;2023-03-12T02:14:12;5.83;61.76
68556;HTU21D;55544;51.032;5.866;2023-03-12T02:16:38;5.85;61.36
68556;HTU21D;55544;51.032;5.866;2023-03-12T02:19:56;5.79;61.75
68556;HTU21D;55544;51.032;5.866;2023-03-12T02:22:03;5.82;61.53
68556;HTU21D;55544;51.032;5.866;2023-03-12T02:24:34;5.79;61.27
68556;HTU21D;55544;51.032;5.866;2023-03-12T02:27:04;5.76;61.26
68556;HTU21D;55544;51.032;5.866;2023-03-12T02:29:32;5.77;61.36
68556;HTU21D;55544;51.032;5.866;2023-03-12T02:32:01;5.78;61.17
68556;HTU21D;55544;51.032;5.866;2023-03-12T02:34:29;5.80;60.73
68556;HTU21D;55544;51.032;5.866;2023-03-12T02:36:55;5.85;60.92
68556;HTU21D;55544;51.032;5.866;2023-03-12T02:39:20;5.84;60.85
68556;HTU21D;55544;51.032;5.866;2023-03-12T02:41:53;5.84;61.01
68556;HTU21D;55544;51.032;5.866;2023-03-12T02:44:30;5.84;61.05
68556;HTU21D;55544;51.032;5.866;2023-03-12T02:46:59;5.79;60.86
68556;HTU21D;55544;51.032;5.866;2023-03-12T02:49:29;5.85;60.97
68556;HTU21D;55544;51.032;5.866;2023-03-12T02:51:56;5.87;60.75
68556;HTU21D;55544;51.032;5.866;2023-03-12T02:54:22;5.91;60.37
68556;HTU21D;55544;51.032;5.866;2023-03-12T02:56:49;5.80;61.21
68556;HTU21D;55544;51.032;5.866;2023-03-12T02:59:16;5.95;60.77
68556;HTU21D;55544;51.032;5.866;2023-03-12T03:01:44;5.94;61.02
68556;HTU21D;55544;51.032;5.866;2023-03-12T03:04:11;5.93;60.73
68556;HTU21D;55544;51.032;5.866;2023-03-12T03:06:39;5.91;60.68
68556;HTU21D;55544;51.032;5.866;2023-03-12T03:09:06;5.96;61.29
68556;HTU21D;55544;51.032;5.866;2023-03-12T03:11:32;5.99;61.12
68556;HTU21D;55544;51.032;5.866;2023-03-12T03:14:00;5.96;61.11
68556;HTU21D;55544;51.032;5.866;2023-03-12T03:16:29;5.85;61.69
68556;HTU21D;55544;51.032;5.866;2023-03-12T03:18:56;5.86;62.04
68556;HTU21D;55544;51.032;5.866;2023-03-12T03:21:22;5.86;62.03
68556;HTU21D;55544;51.032;5.866;2023-03-12T03:23:49;5.89;62.47
68556;HTU21D;55544;51.032;5.866;2023-03-12T03:26:19;5.87;62.65
68556;HTU21D;55544;51.032;5.866;2023-03-12T03:28:46;5.84;63.04
68556;HTU21D;55544;51.032;5.866;2023-03-12T03:31:13;5.85;62.89
68556;HTU21D;55544;51.032;5.866;2023-03-12T03:33:40;5.90;63.26
68556;HTU21D;55544;51.032;5.866;2023-03-12T03:36:08;5.86;63.35
68556;HTU21D;55544;51.032;5.866;2023-03-12T03:38:38;5.83;63.69
68556;HTU21D;55544;51.032;5.866;2023-03-12T03:41:04;5.87;63.85
68556;HTU21D;55544;51.032;5.866;2023-03-12T03:43:33;5.91;63.77
68556;HTU21D;55544;51.032;5.866;2023-03-12T03:46:04;5.84;63.77
68556;HTU21D;55544;51.032;5.866;2023-03-12T03:48:34;5.87;63.67
68556;HTU21D;55544;51.032;5.866;2023-03-12T03:51:01;5.84;63.86
68556;HTU21D;55544;51.032;5.866;2023-03-12T03:53:30;5.85;63.95
68556;HTU21D;55544;51.032;5.866;2023-03-12T03:55:57;5.87;64.50
68556;HTU21D;55544;51.032;5.866;2023-03-12T03:58:23;5.92;64.59
68556;HTU21D;55544;51.032;5.866;2023-03-12T04:00:49;5.93;64.59
68556;HTU21D;55544;51.032;5.866;2023-03-12T04:03:15;5.97;64.47
68556;HTU21D;55544;51.032;5.866;2023-03-12T04:05:41;5.93;65.05
68556;HTU21D;55544;51.032;5.866;2023-03-12T04:08:11;5.97;64.97
68556;HTU21D;55544;51.032;5.866;2023-03-12T04:10:37;5.98;64.76
68556;HTU21D;55544;51.032;5.866;2023-03-12T04:13:03;5.99;65.04
68556;HTU21D;55544;51.032;5.866;2023-03-12T04:15:29;5.99;65.31
68556;HTU21D;55544;51.032;5.866;2023-03-12T04:17:55;6.04;65.26
68556;HTU21D;55544;51.032;5.866;2023-03-12T04:20:21;5.99;65.14
68556;HTU21D;55544;51.032;5.866;2023-03-12T04:22:47;5.91;65.40
68556;HTU21D;55544;51.032;5.866;2023-03-12T04:25:12;5.97;65.59
68556;HTU21D;55544;51.032;5.866;2023-03-12T04:27:39;6.00;65.80
68556;HTU21D;55544;51.032;5.866;2023-03-12T04:30:05;5.93;66.61
68556;HTU21D;55544;51.032;5.866;2023-03-12T04:32:33;5.89;67.58
68556;HTU21D;55544;51.032;5.866;2023-03-12T04:34:59;5.80;68.38
68556;HTU21D;55544;51.032;5.866;2023-03-12T04:37:25;5.84;69.67
68556;HTU21D;55544;51.032;5.866;2023-03-12T04:39:51;5.77;70.28
68556;HTU21D;55544;51.032;5.866;2023-03-12T04:42:17;5.68;72.32
68556;HTU21D;55544;51.032;5.866;2023-03-12T04:44:45;5.57;72.35
68556;HTU21D;55544;51.032;5.866;2023-03-12T04:47:11;5.50;73.50
68556;HTU21D;55544;51.032;5.866;2023-03-12T04:49:37;5.48;73.99
68556;HTU21D;55544;51.032;5.866;2023-03-12T04:52:04;5.43;74.42
68556;HTU21D;55544;51.032;5.866;2023-03-12T04:54:29;5.38;75.13
68556;HTU21D;55544;51.032;5.866;2023-03-12T04:56:57;5.35;75.25
68556;HTU21D;55544;51.032;5.866;2023-03-12T04:59:22;5.43;75.14
68556;HTU21D;55544;51.032;5.866;2023-03-12T05:01:48;5.47;75.33
68556;HTU21D;55544;51.032;5.866;2023-03-12T05:04:20;5.45;75.39
68556;HTU21D;55544;51.032;5.866;2023-03-12T05:06:47;5.42;75.68
68556;HTU21D;55544;51.032;5.866;2023-03-12T05:09:13;5.46;75.73
68556;HTU21D;55544;51.032;5.866;2023-03-12T05:11:39;5.42;75.93
68556;HTU21D;55544;51.032;5.866;2023-03-12T05:14:09;5.41;76.14
68556;HTU21D;55544;51.032;5.866;2023-03-12T05:16:35;5.42;76.18
68556;HTU21D;55544;51.032;5.866;2023-03-12T05:19:01;5.49;76.10
68556;HTU21D;55544;51.032;5.866;2023-03-12T05:21:27;5.49;75.98
68556;HTU21D;55544;51.032;5.866;2023-03-12T05:23:55;5.46;76.18
68556;HTU21D;55544;51.032;5.866;2023-03-12T05:26:29;5.47;76.35
68556;HTU21D;55544;51.032;5.866;2023-03-12T05:29:09;5.46;76.44
68556;HTU21D;55544;51.032;5.866;2023-03-12T05:31:34;5.53;76.31
68556;HTU21D;55544;51.032;5.866;2023-03-12T05:34:03;5.61;75.84
68556;HTU21D;55544;51.032;5.866;2023-03-12T05:36:30;5.68;75.71
68556;HTU21D;55544;51.032;5.866;2023-03-12T05:38:56;5.75;75.60
68556;HTU21D;55544;51.032;5.866;2023-03-12T05:41:26;5.74;75.68
68556;HTU21D;55544;51.032;5.866;2023-03-12T05:43:57;5.74;75.64
68556;HTU21D;55544;51.032;5.866;2023-03-12T05:46:24;5.81;75.42
68556;HTU21D;55544;51.032;5.866;2023-03-12T05:48:51;5.90;75.12
68556;HTU21D;55544;51.032;5.866;2023-03-12T05:51:18;5.89;75.13
68556;HTU21D;55544;51.032;5.866;2023-03-12T05:53:44;5.86;75.24
68556;HTU21D;55544;51.032;5.866;2023-03-12T05:56:14;5.90;75.00
68556;HTU21D;55544;51.032;5.866;2023-03-12T05:58:41;5.87;75.05
68556;HTU21D;55544;51.032;5.866;2023-03-12T06:01:19;5.92;74.91
68556;HTU21D;55544;51.032;5.866;2023-03-12T06:03:46;5.95;74.73
68556;HTU21D;55544;51.032;5.866;2023-03-12T06:06:12;5.93;74.76
68556;HTU21D;55544;51.032;5.866;2023-03-12T06:08:40;5.93;74.69
68556;HTU21D;55544;51.032;5.866;2023-03-12T06:11:06;5.98;74.67
68556;HTU21D;55544;51.032;5.866;2023-03-12T06:13:32;6.06;74.64
68556;HTU21D;55544;51.032;5.866;2023-03-12T06:16:08;6.07;74.55
68556;HTU21D;55544;51.032;5.866;2023-03-12T06:18:34;6.16;74.12
68556;HTU21D;55544;51.032;5.866;2023-03-12T06:21:28;6.10;74.83
68556;HTU21D;55544;51.032;5.866;2023-03-12T06:23:54;6.01;74.94
68556;HTU21D;55544;51.032;5.866;2023-03-12T06:26:25;5.95;75.68
68556;HTU21D;55544;51.032;5.866;2023-03-12T06:28:52;5.97;76.31
68556;HTU21D;55544;51.032;5.866;2023-03-12T06:31:20;5.97;77.25
68556;HTU21D;55544;51.032;5.866;2023-03-12T06:33:46;5.97;77.31
68556;HTU21D;55544;51.032;5.866;2023-03-12T06:36:12;5.99;77.83
68556;HTU21D;55544;51.032;5.866;2023-03-12T06:38:38;6.09;78.05
68556;HTU21D;55544;51.032;5.866;2023-03-12T06:41:10;6.07;78.40
68556;HTU21D;55544;51.032;5.866;2023-03-12T06:43:37;6.08;78.59
68556;HTU21D;55544;51.032;5.866;2023-03-12T06:46:05;6.12;78.98
68556;HTU21D;55544;51.032;5.866;2023-03-12T06:48:32;6.15;79.08
68556;HTU21D;55544;51.032;5.866;2023-03-12T06:51:02;6.22;78.95
68556;HTU21D;55544;51.032;5.866;2023-03-12T06:53:28;6.20;79.55
68556;HTU21D;55544;51.032;5.866;2023-03-12T06:55:54;6.15;80.21
68556;HTU21D;55544;51.032;5.866;2023-03-12T06:58:20;6.22;80.03
68556;HTU21D;55544;51.032;5.866;2023-03-12T07:00:45;6.30;80.07
68556;HTU21D;55544;51.032;5.866;2023-03-12T07:03:11;6.35;80.23
68556;HTU21D;55544;51.032;5.866;2023-03-12T07:05:37;6.38;80.59
68556;HTU21D;55544;51.032;5.866;2023-03-12T07:08:02;6.40;80.59
68556;HTU21D;55544;51.032;5.866;2023-03-12T07:10:28;6.52;80.98
68556;HTU21D;55544;51.032;5.866;2023-03-12T07:12:55;6.42;81.50
68556;HTU21D;55544;51.032;5.866;2023-03-12T07:15:22;6.57;81.49
68556;HTU21D;55544;51.032;5.866;2023-03-12T07:17:48;6.53;82.05
68556;HTU21D;55544;51.032;5.866;2023-03-12T07:20:14;6.57;82.21
68556;HTU21D;55544;51.032;5.866;2023-03-12T07:22:39;6.58;82.52
68556;HTU21D;55544;51.032;5.866;2023-03-12T07:25:05;6.67;82.97
68556;HTU21D;55544;51.032;5.866;2023-03-12T07:27:32;6.63;83.34
68556;HTU21D;55544;51.032;5.866;2023-03-12T07:29:58;6.69;83.47
68556;HTU21D;55544;51.032;5.866;2023-03-12T07:32:24;6.70;83.81
68556;HTU21D;55544;51.032;5.866;2023-03-12T07:34:49;6.70;84.71
68556;HTU21D;55544;51.032;5.866;2023-03-12T07:37:15;6.78;84.97
68556;HTU21D;55544;51.032;5.866;2023-03-12T07:39:40;6.76;85.58
68556;HTU21D;55544;51.032;5.866;2023-03-12T07:42:08;6.78;86.09
68556;HTU21D;55544;51.032;5.866;2023-03-12T07:44:34;6.85;86.54
68556;HTU21D;55544;51.032;5.866;2023-03-12T07:47:01;6.83;87.03
68556;HTU21D;55544;51.032;5.866;2023-03-12T07:49:27;6.88;87.35
68556;HTU21D;55544;51.032;5.866;2023-03-12T07:51:52;6.94;87.57
68556;HTU21D;55544;51.032;5.866;2023-03-12T07:54:19;6.99;87.62
68556;HTU21D;55544;51.032;5.866;2023-03-12T07:56:45;7.02;87.92
68556;HTU21D;55544;51.032;5.866;2023-03-12T07:59:10;7.01;88.55
68556;HTU21D;55544;51.032;5.866;2023-03-12T08:01:36;7.07;88.53
68556;HTU21D;55544;51.032;5.866;2023-03-12T08:04:02;7.04;89.02
68556;HTU21D;55544;51.032;5.866;2023-03-12T08:06:28;7.13;88.97
68556;HTU21D;55544;51.032;5.866;2023-03-12T08:08:54;7.15;89.22
68556;HTU21D;55544;51.032;5.866;2023-03-12T08:11:20;7.18;89.51
68556;HTU21D;55544;51.032;5.866;2023-03-12T08:13:46;7.22;89.60
68556;HTU21D;55544;51.032;5.866;2023-03-12T08:16:12;7.24;89.84
68556;HTU21D;55544;51.032;5.866;2023-03-12T08:18:39;7.28;89.83
68556;HTU21D;55544;51.032;5.866;2023-03-12T08:21:07;7.32;90.08
68556;HTU21D;55544;51.032;5.866;2023-03-12T08:23:33;7.39;90.22
68556;HTU21D;55544;51.032;5.866;2023-03-12T08:26:00;7.47;90.33
68556;HTU21D;55544;51.032;5.866;2023-03-12T08:28:26;7.47;90.57
68556;HTU21D;55544;51.032;5.866;2023-03-12T08:30:54;7.55;90.79
68556;HTU21D;55544;51.032;5.866;2023-03-12T08:33:21;7.64;90.80
68556;HTU21D;55544;51.032;5.866;2023-03-12T08:35:47;7.73;90.63
68556;HTU21D;55544;51.032;5.866;2023-03-12T08:38:13;7.84;90.66
68556;HTU21D;55544;51.032;5.866;2023-03-12T08:40:39;7.73;91.27
68556;HTU21D;55544;51.032;5.866;2023-03-12T08:43:05;7.81;91.38
68556;HTU21D;55544;51.032;5.866;2023-03-12T08:45:32;7.91;91.38
68556;HTU21D;55544;51.032;5.866;2023-03-12T08:47:57;7.98;91.40
68556;HTU21D;55544;51.032;5.866;2023-03-12T08:50:23;8.00;91.82
68556;HTU21D;55544;51.032;5.866;2023-03-12T08:52:54;8.03;91.77
68556;HTU21D;55544;51.032;5.866;2023-03-12T08:55:20;8.04;92.07
68556;HTU21D;55544;51.032;5.866;2023-03-12T08:57:46;8.13;91.78
68556;HTU21D;55544;51.032;5.866;2023-03-12T09:00:12;8.12;91.96
68556;HTU21D;55544;51.032;5.866;2023-03-12T09:02:45;8.19;92.00
68556;HTU21D;55544;51.032;5.866;2023-03-12T09:05:11;8.21;92.06
68556;HTU21D;55544;51.032;5.866;2023-03-12T09:07:37;8.16;92.66
68556;HTU21D;55544;51.032;5.866;2023-03-12T09:10:03;8.31;92.53
68556;HTU21D;55544;51.032;5.866;2023-03-12T09:12:29;8.35;92.79
68556;HTU21D;55544;51.032;5.866;2023-03-12T09:14:55;8.38;93.14
68556;HTU21D;55544;51.032;5.866;2023-03-12T09:17:20;8.50;93.07
68556;HTU21D;55544;51.032;5.866;2023-03-12T09:19:46;8.61;92.85
68556;HTU21D;55544;51.032;5.866;2023-03-12T09:22:12;8.63;92.88
68556;HTU21D;55544;51.032;5.866;2023-03-12T09:24:38;8.72;92.79
68556;HTU21D;55544;51.032;5.866;2023-03-12T09:27:03;8.85;93.01
68556;HTU21D;55544;51.032;5.866;2023-03-12T09:29:30;8.93;92.46
68556;HTU21D;55544;51.032;5.866;2023-03-12T09:31:56;8.85;93.14
68556;HTU21D;55544;51.032;5.866;2023-03-12T09:34:21;9.01;92.90
68556;HTU21D;55544;51.032;5.866;2023-03-12T09:36:47;9.07;92.97
68556;HTU21D;55544;51.032;5.866;2023-03-12T09:39:13;9.15;92.86
68556;HTU21D;55544;51.032;5.866;2023-03-12T09:41:40;9.15;93.04
68556;HTU21D;55544;51.032;5.866;2023-03-12T09:44:35;9.24;93.10
68556;HTU21D;55544;51.032;5.866;2023-03-12T09:47:27;9.52;92.50
68556;HTU21D;55544;51.032;5.866;2023-03-12T09:50:02;9.55;92.20
68556;HTU21D;55544;51.032;5.866;2023-03-12T09:52:45;9.54;92.50
68556;HTU21D;55544;51.032;5.866;2023-03-12T09:55:16;9.62;91.92
68556;HTU21D;55544;51.032;5.866;2023-03-12T09:57:45;9.72;92.05
68556;HTU21D;55544;51.032;5.866;2023-03-12T10:00:16;9.68;92.11
68556;HTU21D;55544;51.032;5.866;2023-03-12T10:06:01;9.80;92.06
68556;HTU21D;55544;51.032;5.866;2023-03-12T10:08:57;9.85;92.01
68556;HTU21D;55544;51.032;5.866;2023-03-12T10:27:43;10.20;90.81
68556;HTU21D;55544;51.032;5.866;2023-03-12T10:30:17;10.24;91.02
68556;HTU21D;55544;51.032;5.866;2023-03-12T10:32:50;10.24;90.71
68556;HTU21D;55544;51.032;5.866;2023-03-12T10:35:21;10.33;90.72
68556;HTU21D;55544;51.032;5.866;2023-03-12T10:37:57;10.54;89.91
68556;HTU21D;55544;51.032;5.866;2023-03-12T10:40:26;10.49;89.85
68556;HTU21D;55544;51.032;5.866;2023-03-12T10:42:53;10.46;89.97
68556;HTU21D;55544;51.032;5.866;2023-03-12T10:45:51;10.51;89.87
68556;HTU21D;55544;51.032;5.866;2023-03-12T10:48:21;10.63;89.46
68556;HTU21D;55544;51.032;5.866;2023-03-12T10:51:01;10.67;89.51
68556;HTU21D;55544;51.032;5.866;2023-03-12T10:53:30;10.75;89.45
68556;HTU21D;55544;51.032;5.866;2023-03-12T10:56:08;10.87;89.47
68556;HTU21D;55544;51.032;5.866;2023-03-12T10:58:51;11.04;89.24
68556;HTU21D;55544;51.032;5.866;2023-03-12T11:03:44;11.39;88.27
68556;HTU21D;55544;51.032;5.866;2023-03-12T11:06:21;11.57;88.60
68556;HTU21D;55544;51.032;5.866;2023-03-12T11:09:17;11.78;87.88
68556;HTU21D;55544;51.032;5.866;2023-03-12T11:11:44;12.00;86.54
68556;HTU21D;55544;51.032;5.866;2023-03-12T11:14:21;12.25;85.95
68556;HTU21D;55544;51.032;5.866;2023-03-12T11:16:49;12.40;85.41
68556;HTU21D;55544;51.032;5.866;2023-03-12T11:19:35;12.50;84.07
68556;HTU21D;55544;51.032;5.866;2023-03-12T11:22:08;12.52;84.44
68556;HTU21D;55544;51.032;5.866;2023-03-12T11:24:54;12.59;83.23
68556;HTU21D;55544;51.032;5.866;2023-03-12T11:30:04;12.33;83.56
68556;HTU21D;55544;51.032;5.866;2023-03-12T11:32:36;12.55;83.62
68556;HTU21D;55544;51.032;5.866;2023-03-12T11:35:12;12.70;82.47
68556;HTU21D;55544;51.032;5.866;2023-03-12T11:49:25;12.70;81.23
68556;HTU21D;55544;51.032;5.866;2023-03-12T11:57:58;12.67;81.57
68556;HTU21D;55544;51.032;5.866;2023-03-12T12:00:33;12.70;81.45
68556;HTU21D;55544;51.032;5.866;2023-03-12T12:05:57;12.56;81.03
68556;HTU21D;55544;51.032;5.866;2023-03-12T12:08:46;12.56;81.01
68556;HTU21D;55544;51.032;5.866;2023-03-12T12:17:06;12.76;81.44
68556;HTU21D;55544;51.032;5.866;2023-03-12T12:19:46;12.86;80.59
68556;HTU21D;55544;51.032;5.866;2023-03-12T12:22:41;12.99;79.47
68556;HTU21D;55544;51.032;5.866;2023-03-12T12:25:33;13.01;78.62
68556;HTU21D;55544;51.032;5.866;2023-03-12T12:28:12;13.05;79.09
68556;HTU21D;55544;51.032;5.866;2023-03-12T12:36:17;13.30;76.29
68556;HTU21D;55544;51.032;5.866;2023-03-12T12:38:51;13.29;75.73
68556;HTU21D;55544;51.032;5.866;2023-03-12T12:41:24;13.23;75.64
68556;HTU21D;55544;51.032;5.866;2023-03-12T12:43:58;13.25;75.93
68556;HTU21D;55544;51.032;5.866;2023-03-12T12:46:33;13.47;74.76
68556;HTU21D;55544;51.032;5.866;2023-03-12T12:49:11;13.55;74.25
68556;HTU21D;55544;51.032;5.866;2023-03-12T12:51:43;13.53;74.83
68556;HTU21D;55544;51.032;5.866;2023-03-12T12:57:15;13.51;71.90
68556;HTU21D;55544;51.032;5.866;2023-03-12T13:02:55;13.56;72.00
68556;HTU21D;55544;51.032;5.866;2023-03-12T13:05:43;13.58;72.42
68556;HTU21D;55544;51.032;5.866;2023-03-12T13:08:35;13.54;70.56
68556;HTU21D;55544;51.032;5.866;2023-03-12T13:11:37;13.59;71.30
68556;HTU21D;55544;51.032;5.866;2023-03-12T13:16:40;13.52;72.20
68556;HTU21D;55544;51.032;5.866;2023-03-12T13:24:30;13.32;71.13
68556;HTU21D;55544;51.032;5.866;2023-03-12T13:27:18;13.21;72.22
68556;HTU21D;55544;51.032;5.866;2023-03-12T13:29:46;13.14;72.00
68556;HTU21D;55544;51.032;5.866;2023-03-12T13:46:05;13.44;71.46
68556;HTU21D;55544;51.032;5.866;2023-03-12T13:48:44;13.48;71.07
68556;HTU21D;55544;51.032;5.866;2023-03-12T13:51:19;13.31;70.55
68556;HTU21D;55544;51.032;5.866;2023-03-12T13:53:54;13.29;69.78
68556;HTU21D;55544;51.032;5.866;2023-03-12T13:56:29;13.14;69.95
68556;HTU21D;55544;51.032;5.866;2023-03-12T13:59:00;13.26;70.33
68556;HTU21D;55544;51.032;5.866;2023-03-12T14:01:35;13.19;70.82
68556;HTU21D;55544;51.032;5.866;2023-03-12T14:04:11;13.30;70.55
68556;HTU21D;55544;51.032;5.866;2023-03-12T14:15:47;13.74;69.84
68556;HTU21D;55544;51.032;5.866;2023-03-12T14:18:21;14.05;66.68
68556;HTU21D;55544;51.032;5.866;2023-03-12T14:21:08;14.29;65.95
68556;HTU21D;55544;51.032;5.866;2023-03-12T14:23:38;14.33;64.60
68556;HTU21D;55544;51.032;5.866;2023-03-12T14:26:05;14.13;64.78
68556;HTU21D;55544;51.032;5.866;2023-03-12T14:28:39;14.07;66.76
68556;HTU21D;55544;51.032;5.866;2023-03-12T14:31:12;13.89;64.96
68556;HTU21D;55544;51.032;5.866;2023-03-12T14:36:40;13.83;65.19
68556;HTU21D;55544;51.032;5.866;2023-03-12T14:41:57;14.01;64.43
68556;HTU21D;55544;51.032;5.866;2023-03-12T14:44:27;14.10;64.34
68556;HTU21D;55544;51.032;5.866;2023-03-12T14:47:03;14.03;63.78
68556;HTU21D;55544;51.032;5.866;2023-03-12T14:49:42;14.06;63.90
68556;HTU21D;55544;51.032;5.866;2023-03-12T14:52:14;13.94;63.62
68556;HTU21D;55544;51.032;5.866;2023-03-12T14:54:57;13.82;65.05
68556;HTU21D;55544;51.032;5.866;2023-03-12T14:57:24;13.79;64.77
68556;HTU21D;55544;51.032;5.866;2023-03-12T14:59:55;13.65;64.57
68556;HTU21D;55544;51.032;5.866;2023-03-12T15:02:22;13.56;64.18
68556;HTU21D;55544;51.032;5.866;2023-03-12T15:04:50;13.54;65.11
68556;HTU21D;55544;51.032;5.866;2023-03-12T15:07:26;13.53;64.96
68556;HTU21D;55544;51.032;5.866;2023-03-12T15:09:54;13.23;64.01
68556;HTU21D;55544;51.032;5.866;2023-03-12T15:12:23;13.37;65.50
68556;HTU21D;55544;51.032;5.866;2023-03-12T15:15:00;13.29;64.84
68556;HTU21D;55544;51.032;5.866;2023-03-12T15:17:29;13.30;64.66
68556;HTU21D;55544;51.032;5.866;2023-03-12T15:19:56;13.38;64.21
68556;HTU21D;55544;51.032;5.866;2023-03-12T15:22:24;13.31;64.98
68556;HTU21D;55544;51.032;5.866;2023-03-12T15:24:52;13.39;63.49
68556;HTU21D;55544;51.032;5.866;2023-03-12T15:27:21;13.40;63.63
68556;HTU21D;55544;51.032;5.866;2023-03-12T15:29:55;13.33;64.31
68556;HTU21D;55544;51.032;5.866;2023-03-12T15:32:23;13.33;64.60
68556;HTU21D;55544;51.032;5.866;2023-03-12T15:34:51;13.21;64.17
68556;HTU21D;55544;51.032;5.866;2023-03-12T15:37:27;13.25;64.59
68556;HTU21D;55544;51.032;5.866;2023-03-12T15:40:00;13.38;64.60
68556;HTU21D;55544;51.032;5.866;2023-03-12T15:42:28;13.24;63.64
68556;HTU21D;55544;51.032;5.866;2023-03-12T15:44:59;13.18;64.50
68556;HTU21D;55544;51.032;5.866;2023-03-12T15:47:30;13.24;64.50
68556;HTU21D;55544;51.032;5.866;2023-03-12T15:50:03;13.17;65.06
68556;HTU21D;55544;51.032;5.866;2023-03-12T15:52:34;13.16;64.06
68556;HTU21D;55544;51.032;5.866;2023-03-12T15:57:45;13.27;65.00
68556;HTU21D;55544;51.032;5.866;2023-03-12T16:00:15;13.09;65.02
68556;HTU21D;55544;51.032;5.866;2023-03-12T16:05:17;13.18;64.69
68556;HTU21D;55544;51.032;5.866;2023-03-12T16:07:43;13.26;64.60
68556;HTU21D;55544;51.032;5.866;2023-03-12T16:10:13;13.24;64.52
68556;HTU21D;55544;51.032;5.866;2023-03-12T16:12:41;13.15;64.35
68556;HTU21D;55544;51.032;5.866;2023-03-12T16:15:16;13.14;64.69
68556;HTU21D;55544;51.032;5.866;2023-03-12T16:17:42;13.19;64.20
68556;HTU21D;55544;51.032;5.866;2023-03-12T16:20:12;13.15;64.19
68556;HTU21D;55544;51.032;5.866;2023-03-12T16:22:39;13.10;64.52
68556;HTU21D;55544;51.032;5.866;2023-03-12T16:25:07;13.17;64.11
68556;HTU21D;55544;51.032;5.866;2023-03-12T16:27:33;13.11;63.92
68556;HTU21D;55544;51.032;5.866;2023-03-12T16:30:34;13.07;64.82
68556;HTU21D;55544;51.032;5.866;2023-03-12T16:33:01;13.06;64.69
68556;HTU21D;55544;51.032;5.866;2023-03-12T16:35:27;13.07;65.60
68556;HTU21D;55544;51.032;5.866;2023-03-12T16:37:55;13.09;65.68
68556;HTU21D;55544;51.032;5.866;2023-03-12T16:40:22;13.11;65.98
68556;HTU21D;55544;51.032;5.866;2023-03-12T16:42:50;13.04;65.82
68556;HTU21D;55544;51.032;5.866;2023-03-12T16:45:18;13.10;66.03
68556;HTU21D;55544;51.032;5.866;2023-03-12T16:47:44;12.97;66.32
68556;HTU21D;55544;51.032;5.866;2023-03-12T16:50:14;13.01;66.72
68556;HTU21D;55544;51.032;5.866;2023-03-12T16:52:40;13.03;66.18
68556;HTU21D;55544;51.032;5.866;2023-03-12T16:55:06;13.02;66.81
68556;HTU21D;55544;51.032;5.866;2023-03-12T16:57:35;13.02;66.98
68556;HTU21D;55544;51.032;5.866;2023-03-12T17:00:05;13.05;66.52
68556;HTU21D;55544;51.032;5.866;2023-03-12T17:02:34;12.96;66.94
68556;HTU21D;55544;51.032;5.866;2023-03-12T17:05:00;12.99;66.99
68556;HTU21D;55544;51.032;5.866;2023-03-12T17:07:26;13.00;67.04
68556;HTU21D;55544;51.032;5.866;2023-03-12T17:09:51;12.90;67.36
68556;HTU21D;55544;51.032;5.866;2023-03-12T17:12:28;12.89;67.65
68556;HTU21D;55544;51.032;5.866;2023-03-12T17:14:55;12.92;67.16
68556;HTU21D;55544;51.032;5.866;2023-03-12T17:17:21;12.79;67.74
68556;HTU21D;55544;51.032;5.866;2023-03-12T17:19:48;12.86;67.32
68556;HTU21D;55544;51.032;5.866;2023-03-12T17:22:18;12.78;67.50
68556;HTU21D;55544;51.032;5.866;2023-03-12T17:24:44;12.78;67.83
68556;HTU21D;55544;51.032;5.866;2023-03-12T17:27:12;12.73;68.07
68556;HTU21D;55544;51.032;5.866;2023-03-12T17:29:38;12.78;67.64